createdAt,value
2022-07-28T00:00:04.630Z,0.00
2022-07-28T00:01:05.077Z,0.00
2022-07-28T00:02:06.615Z,0.00
2022-07-28T00:03:05.774Z,0.00
2022-07-28T00:04:05.781Z,0.00
2022-07-28T00:05:06.370Z,0.00
2022-07-28T00:06:06.552Z,0.00
2022-07-28T00:06:17.210Z,0.00
2022-07-28T00:07:18.070Z,0.00
2022-07-28T00:08:18.249Z,0.00
2022-07-28T00:09:18.406Z,0.00
2022-07-28T00:10:18.448Z,0.00
2022-07-28T00:11:19.845Z,0.00
2022-07-28T00:12:20.254Z,0.00
2022-07-28T00:13:19.709Z,0.00
2022-07-28T00:14:21.329Z,0.00
2022-07-28T00:15:21.154Z,0.00
2022-07-28T00:16:22.376Z,0.00
2022-07-28T00:17:21.602Z,0.00
2022-07-28T00:18:21.857Z,0.00
2022-07-28T00:19:23.804Z,0.00
2022-07-28T00:20:23.882Z,0.00
2022-07-28T00:21:23.022Z,0.00
2022-07-28T00:22:23.151Z,0.00
2022-07-28T00:23:24.185Z,0.00
2022-07-28T00:24:23.253Z,0.00
2022-07-28T00:25:23.429Z,0.00
2022-07-28T00:26:23.427Z,0.00
2022-07-28T00:27:24.724Z,0.00
2022-07-28T00:28:23.780Z,0.00
2022-07-28T00:29:24.277Z,0.00
2022-07-28T00:30:24.347Z,0.00
2022-07-28T00:31:24.754Z,0.00
2022-07-28T00:32:25.325Z,0.00
2022-07-28T00:32:33.965Z,0.00
2022-07-28T00:33:33.965Z,0.00
2022-07-28T00:34:35.128Z,0.00
2022-07-28T00:35:35.129Z,0.00
2022-07-28T00:36:36.312Z,0.00
2022-07-28T00:37:36.035Z,0.00
2022-07-28T00:38:36.124Z,0.00
2022-07-28T00:39:36.457Z,0.00
2022-07-28T00:40:37.609Z,0.00
2022-07-28T00:41:36.842Z,0.00
2022-07-28T00:42:37.838Z,0.00
2022-07-28T00:43:37.870Z,0.00
2022-07-28T00:44:39.104Z,0.00
2022-07-28T00:45:38.097Z,0.00
2022-07-28T00:46:38.726Z,0.00
2022-07-28T00:48:13.841Z,0.00
2022-07-28T00:49:14.864Z,0.00
2022-07-28T00:50:14.837Z,0.00
2022-07-28T00:51:15.552Z,0.00
2022-07-28T00:52:16.857Z,0.00
2022-07-28T00:53:17.201Z,0.00
2022-07-28T00:54:17.598Z,0.00
2022-07-28T00:55:17.040Z,0.00
2022-07-28T00:56:18.048Z,0.00
2022-07-28T00:57:18.367Z,0.00
2022-07-28T00:58:17.556Z,0.00
2022-07-28T00:59:18.689Z,0.00
2022-07-28T01:00:17.672Z,0.00
2022-07-28T01:01:18.932Z,0.00
2022-07-28T01:02:19.684Z,0.00
2022-07-28T01:03:18.604Z,0.00
2022-07-28T01:04:19.664Z,0.00
2022-07-28T01:05:18.862Z,0.00
2022-07-28T01:06:19.751Z,0.00
2022-07-28T01:07:19.851Z,0.00
2022-07-28T01:08:20.101Z,0.00
2022-07-28T01:09:21.681Z,0.00
2022-07-28T01:10:21.975Z,0.00
2022-07-28T01:11:21.217Z,0.00
2022-07-28T01:11:31.867Z,0.00
2022-07-28T01:12:32.098Z,0.00
2022-07-28T01:13:33.371Z,0.00
2022-07-28T01:14:32.704Z,0.00
2022-07-28T01:15:33.078Z,0.00
2022-07-28T01:16:34.426Z,0.00
2022-07-28T01:17:33.761Z,0.00
2022-07-28T01:18:34.150Z,0.00
2022-07-28T01:19:34.229Z,0.00
2022-07-28T01:20:34.399Z,0.00
2022-07-28T01:21:34.723Z,0.00
2022-07-28T01:22:36.047Z,0.00
2022-07-28T01:23:35.169Z,0.00
2022-07-28T01:24:35.323Z,0.00
2022-07-28T01:25:36.396Z,0.00
2022-07-28T01:26:35.670Z,0.00
2022-07-28T01:27:36.174Z,0.00
2022-07-28T01:28:37.271Z,0.00
2022-07-28T01:29:36.479Z,0.00
2022-07-28T01:30:36.792Z,0.00
2022-07-28T01:31:37.225Z,0.00
2022-07-28T01:32:37.396Z,0.00
2022-07-28T01:33:38.514Z,0.00
2022-07-28T01:34:38.688Z,0.00
2022-07-28T01:35:39.294Z,0.00
2022-07-28T01:36:39.454Z,0.00
2022-07-28T01:36:51.594Z,0.00
2022-07-28T01:37:51.915Z,0.00
2022-07-28T01:38:53.834Z,0.00
2022-07-28T01:39:54.067Z,0.00
2022-07-28T01:40:54.147Z,0.00
2022-07-28T01:41:53.422Z,0.00
2022-07-28T01:42:53.901Z,0.00
2022-07-28T01:43:55.269Z,0.00
2022-07-28T01:44:55.802Z,0.00
2022-07-28T01:45:56.062Z,0.00
2022-07-28T01:46:55.418Z,0.00
2022-07-28T01:47:56.111Z,0.00
2022-07-28T01:48:57.630Z,0.00
2022-07-28T01:49:56.690Z,0.00
2022-07-28T01:50:57.905Z,0.00
2022-07-28T01:51:58.258Z,0.00
2022-07-28T01:52:58.584Z,0.00
2022-07-28T01:53:58.763Z,0.00
2022-07-28T01:54:59.126Z,0.00
2022-07-28T01:55:59.754Z,0.00
2022-07-28T01:57:00.343Z,0.00
2022-07-28T01:58:00.678Z,0.00
2022-07-28T01:58:10.774Z,0.00
2022-07-28T01:59:12.311Z,0.00
2022-07-28T02:00:12.959Z,0.00
2022-07-28T02:01:13.536Z,0.00
2022-07-28T02:02:12.697Z,0.00
2022-07-28T02:03:13.978Z,0.00
2022-07-28T02:04:14.765Z,0.00
2022-07-28T02:05:14.038Z,0.00
2022-07-28T02:06:14.078Z,0.00
2022-07-28T02:07:15.192Z,0.00
2022-07-28T02:08:15.431Z,0.00
2022-07-28T02:09:15.513Z,0.00
2022-07-28T02:10:15.632Z,0.00
2022-07-28T02:11:15.792Z,0.00
2022-07-28T02:12:16.059Z,0.00
2022-07-28T02:13:16.490Z,0.00
2022-07-28T02:14:17.433Z,0.00
2022-07-28T02:15:15.967Z,0.00
2022-07-28T02:16:17.208Z,0.00
2022-07-28T02:17:16.418Z,0.00
2022-07-28T02:18:17.635Z,0.00
2022-07-28T02:19:17.768Z,0.00
2022-07-28T02:19:26.361Z,0.00
2022-07-28T02:20:27.482Z,0.00
2022-07-28T02:21:27.476Z,0.00
2022-07-28T02:22:27.600Z,0.00
2022-07-28T02:23:28.002Z,0.00
2022-07-28T02:24:28.178Z,0.00
2022-07-28T02:25:27.210Z,0.00
2022-07-28T02:26:28.670Z,0.00
2022-07-28T02:27:28.973Z,0.00
2022-07-28T02:28:28.239Z,0.00
2022-07-28T02:29:49.591Z,0.00
2022-07-28T02:30:28.654Z,0.00
2022-07-28T02:31:29.802Z,0.00
2022-07-28T02:32:28.927Z,0.00
2022-07-28T02:33:59.885Z,0.00
2022-07-28T02:34:29.219Z,0.00
2022-07-28T02:35:32.202Z,0.00
2022-07-28T02:36:30.416Z,0.00
2022-07-28T02:37:30.646Z,0.00
2022-07-28T02:38:31.775Z,0.00
2022-07-28T02:39:32.159Z,0.00
2022-07-28T02:40:33.078Z,0.00
2022-07-28T02:40:41.734Z,0.00
2022-07-28T02:41:43.373Z,0.00
2022-07-28T02:42:43.498Z,0.00
2022-07-28T02:43:50.364Z,0.00
2022-07-28T02:44:43.520Z,0.00
2022-07-28T02:45:45.492Z,0.00
2022-07-28T02:46:44.596Z,0.00
2022-07-28T02:47:44.557Z,0.00
2022-07-28T02:48:45.803Z,0.05
2022-07-28T02:49:44.837Z,0.05
2022-07-28T02:50:46.201Z,0.05
2022-07-28T02:51:46.401Z,0.05
2022-07-28T02:52:45.428Z,0.05
2022-07-28T02:53:46.589Z,0.05
2022-07-28T02:54:45.724Z,0.05
2022-07-28T02:55:47.103Z,0.05
2022-07-28T02:56:53.582Z,0.09
2022-07-28T02:57:46.883Z,0.09
2022-07-28T02:58:48.180Z,0.14
2022-07-28T02:59:48.718Z,0.14
2022-07-28T03:00:49.165Z,0.14
2022-07-28T03:00:58.494Z,0.14
2022-07-28T03:01:58.615Z,0.14
2022-07-28T03:02:58.599Z,0.18
2022-07-28T03:04:00.333Z,0.22
2022-07-28T03:05:01.392Z,0.27
2022-07-28T03:06:00.482Z,0.31
2022-07-28T03:07:01.580Z,0.36
2022-07-28T03:08:02.540Z,0.41
2022-07-28T03:09:02.617Z,0.50
2022-07-28T03:10:02.019Z,0.58
2022-07-28T03:11:02.524Z,0.68
2022-07-28T03:12:03.716Z,0.76
2022-07-28T03:13:04.664Z,0.90
2022-07-28T03:14:04.920Z,1.08
2022-07-28T03:15:05.171Z,1.26
2022-07-28T03:16:05.802Z,1.44
2022-07-28T03:17:06.078Z,1.66
2022-07-28T03:18:05.474Z,1.93
2022-07-28T03:19:06.593Z,2.34
2022-07-28T03:20:07.531Z,2.70
2022-07-28T03:21:07.946Z,3.11
2022-07-28T03:22:10.468Z,3.56
2022-07-28T03:23:07.592Z,4.09
2022-07-28T03:23:16.925Z,4.18
2022-07-28T03:24:17.427Z,4.86
2022-07-28T03:25:17.527Z,5.62
2022-07-28T03:26:17.917Z,6.48
2022-07-28T03:27:19.674Z,7.43
2022-07-28T03:28:20.091Z,8.51
2022-07-28T03:29:20.517Z,9.85
2022-07-28T03:30:19.786Z,11.30
2022-07-28T03:31:20.995Z,12.96
2022-07-28T03:32:20.284Z,14.94
2022-07-28T03:33:21.445Z,17.19
2022-07-28T03:34:20.706Z,19.71
2022-07-28T03:35:22.218Z,22.50
2022-07-28T03:36:22.225Z,25.56
2022-07-28T03:37:23.196Z,29.34
2022-07-28T03:38:23.315Z,32.94
2022-07-28T03:39:23.952Z,37.44
2022-07-28T03:40:24.898Z,42.12
2022-07-28T03:41:25.103Z,47.16
2022-07-28T03:42:25.124Z,53.28
2022-07-28T03:43:26.119Z,59.40
2022-07-28T03:44:27.698Z,66.60
2022-07-28T03:45:26.123Z,73.80
2022-07-28T03:45:40.817Z,75.24
2022-07-28T03:46:39.857Z,82.44
2022-07-28T03:47:40.356Z,90.72
2022-07-28T03:48:41.448Z,98.64
2022-07-28T03:49:40.582Z,107.28
2022-07-28T03:50:41.937Z,115.92
2022-07-28T03:51:43.579Z,126.00
2022-07-28T03:52:42.846Z,136.08
2022-07-28T03:53:43.096Z,146.88
2022-07-28T03:54:43.585Z,159.12
2022-07-28T03:55:44.189Z,172.08
2022-07-28T03:56:43.345Z,185.76
2022-07-28T03:57:44.908Z,200.16
2022-07-28T03:58:47.950Z,216.00
2022-07-28T03:59:46.327Z,231.84
2022-07-28T04:00:45.524Z,249.12
2022-07-28T04:01:49.244Z,269.28
2022-07-28T04:02:48.570Z,288.00
2022-07-28T04:03:48.701Z,308.16
2022-07-28T04:04:49.759Z,329.76
2022-07-28T04:05:48.848Z,352.80
2022-07-28T04:06:50.760Z,374.40
2022-07-28T04:07:51.760Z,403.20
2022-07-28T04:08:00.398Z,406.08
2022-07-28T04:09:01.322Z,437.76
2022-07-28T04:10:01.511Z,466.56
2022-07-28T04:11:02.810Z,501.12
2022-07-28T04:12:03.018Z,532.80
2022-07-28T04:13:03.133Z,567.36
2022-07-28T04:14:03.060Z,604.80
2022-07-28T04:15:04.467Z,639.36
2022-07-28T04:16:05.434Z,676.80
2022-07-28T04:17:04.588Z,711.36
2022-07-28T04:18:04.539Z,743.04
2022-07-28T04:19:06.455Z,771.84
2022-07-28T04:20:07.324Z,800.64
2022-07-28T04:21:07.371Z,823.68
2022-07-28T04:22:08.349Z,852.48
2022-07-28T04:23:08.375Z,881.28
2022-07-28T04:24:09.128Z,904.32
2022-07-28T04:25:09.929Z,933.12
2022-07-28T04:26:10.807Z,961.92
2022-07-28T04:27:11.571Z,996.48
2022-07-28T04:27:20.254Z,1002.24
2022-07-28T04:28:21.122Z,1140.48
2022-07-28T04:29:27.104Z,1175.04
2022-07-28T04:30:22.660Z,1209.60
2022-07-28T04:31:24.529Z,1249.92
2022-07-28T04:32:24.903Z,1296.00
2022-07-28T04:33:23.899Z,1347.84
2022-07-28T04:34:25.518Z,1399.68
2022-07-28T04:35:26.328Z,1451.52
2022-07-28T04:36:27.160Z,1497.60
2022-07-28T04:37:32.534Z,1543.68
2022-07-28T04:38:27.042Z,1589.76
2022-07-28T04:39:28.909Z,1647.36
2022-07-28T04:40:29.670Z,1693.44
2022-07-28T04:41:30.467Z,1751.04
2022-07-28T04:42:31.405Z,1808.64
2022-07-28T04:43:32.566Z,1958.40
2022-07-28T04:44:30.701Z,2327.04
2022-07-28T04:45:31.623Z,2833.92
2022-07-28T04:46:32.376Z,3041.28
2022-07-28T04:47:33.266Z,3456.00
2022-07-28T04:48:35.877Z,4285.44
2022-07-28T04:49:35.680Z,4308.48
2022-07-28T04:50:34.785Z,4147.20
2022-07-28T04:51:35.942Z,4239.36
2022-07-28T04:52:36.795Z,4032.00
2022-07-28T04:52:52.837Z,3870.72
2022-07-28T04:53:53.252Z,3709.44
2022-07-28T04:54:54.410Z,4400.64
2022-07-28T04:55:55.233Z,5368.32
2022-07-28T04:56:56.063Z,5529.60
2022-07-28T04:57:56.077Z,4423.68
2022-07-28T04:58:57.068Z,4492.80
2022-07-28T04:59:57.965Z,5598.72
2022-07-28T05:00:58.285Z,5575.68
2022-07-28T05:01:57.915Z,5506.56
2022-07-28T05:02:59.049Z,5506.56
2022-07-28T05:03:59.098Z,5506.56
2022-07-28T05:04:59.863Z,5644.80
2022-07-28T05:05:58.779Z,4907.52
2022-07-28T05:07:00.747Z,5990.40
2022-07-28T05:07:59.896Z,5114.88
2022-07-28T05:09:01.096Z,4032.00
2022-07-28T05:10:01.540Z,3617.28
2022-07-28T05:11:01.244Z,2914.56
2022-07-28T05:12:02.497Z,2684.16
2022-07-28T05:12:16.151Z,2684.16
2022-07-28T05:13:16.145Z,2845.44
2022-07-28T05:14:17.704Z,3041.28
2022-07-28T05:15:17.436Z,3363.84
2022-07-28T05:16:19.433Z,5184.00
2022-07-28T05:17:19.294Z,5898.24
2022-07-28T05:18:21.114Z,5990.40
2022-07-28T05:19:22.086Z,7188.48
2022-07-28T05:20:22.268Z,8432.64
2022-07-28T05:21:22.370Z,9722.88
2022-07-28T05:22:22.440Z,9077.76
2022-07-28T05:23:24.375Z,9768.96
2022-07-28T05:24:25.209Z,8432.64
2022-07-28T05:25:25.080Z,8709.12
2022-07-28T05:26:26.386Z,8432.64
2022-07-28T05:27:27.292Z,7464.96
2022-07-28T05:28:27.531Z,8570.88
2022-07-28T05:29:46.829Z,10828.80
2022-07-28T05:30:27.525Z,10828.80
2022-07-28T05:31:29.297Z,9953.28
2022-07-28T05:32:29.184Z,10091.52
2022-07-28T05:33:31.901Z,10275.84
2022-07-28T05:34:30.145Z,8248.32
2022-07-28T05:35:30.330Z,6773.76
2022-07-28T05:35:40.467Z,6635.52
2022-07-28T05:36:42.622Z,6359.04
2022-07-28T05:37:42.343Z,5806.08
2022-07-28T05:38:43.097Z,6220.80
2022-07-28T05:39:43.945Z,6451.20
2022-07-28T05:40:44.460Z,6359.04
2022-07-28T05:41:44.295Z,5783.04
2022-07-28T05:42:46.070Z,5160.96
2022-07-28T05:43:46.179Z,5299.20
2022-07-28T05:44:46.633Z,5322.24
2022-07-28T05:45:46.879Z,5391.36
2022-07-28T05:46:46.406Z,5045.76
2022-07-28T05:47:46.970Z,5990.40
2022-07-28T05:48:48.808Z,7925.76
2022-07-28T05:49:49.433Z,7649.28
2022-07-28T05:50:49.930Z,5345.28
2022-07-28T05:51:49.891Z,5230.08
2022-07-28T05:52:51.484Z,5207.04
2022-07-28T05:53:50.404Z,4907.52
2022-07-28T05:54:51.912Z,5713.92
2022-07-28T05:55:01.556Z,6589.44
2022-07-28T05:56:02.105Z,5184.00
2022-07-28T05:57:03.023Z,5644.80
2022-07-28T05:58:04.887Z,5990.40
2022-07-28T05:59:05.837Z,6405.12
2022-07-28T06:00:06.822Z,5898.24
2022-07-28T06:01:06.699Z,6405.12
2022-07-28T06:02:08.096Z,13547.52
2022-07-28T06:03:07.940Z,13547.52
2022-07-28T06:04:26.837Z,12718.08
2022-07-28T06:05:09.024Z,14469.12
2022-07-28T06:06:15.960Z,15206.40
2022-07-28T06:07:10.768Z,14837.76
2022-07-28T06:08:10.841Z,9630.72
2022-07-28T06:09:12.760Z,9308.16
2022-07-28T06:10:13.521Z,17326.08
2022-07-28T06:11:21.599Z,18524.16
2022-07-28T06:12:13.919Z,19537.92
2022-07-28T06:13:14.441Z,7741.44
2022-07-28T06:14:16.923Z,6912.00
2022-07-28T06:15:15.416Z,6635.52
2022-07-28T06:16:16.374Z,15482.88
2022-07-28T06:17:17.218Z,12441.60
2022-07-28T06:18:18.294Z,17418.24
2022-07-28T06:19:18.555Z,11381.76
2022-07-28T06:19:30.233Z,12349.44
2022-07-28T06:20:31.117Z,15022.08
2022-07-28T06:21:36.972Z,9216.00
2022-07-28T06:22:32.836Z,8524.80
2022-07-28T06:23:34.041Z,13178.88
2022-07-28T06:24:34.761Z,17049.60
2022-07-28T06:25:35.574Z,8202.24
2022-07-28T06:26:35.033Z,10414.08
2022-07-28T06:27:36.845Z,17049.60
2022-07-28T06:28:37.816Z,15851.52
2022-07-28T06:29:37.619Z,14653.44
2022-07-28T06:30:38.546Z,6128.64
2022-07-28T06:31:40.348Z,12072.96
2022-07-28T06:32:39.550Z,8755.20
2022-07-28T06:33:41.422Z,22763.52
2022-07-28T06:34:42.305Z,22855.68
2022-07-28T06:35:50.056Z,19998.72
2022-07-28T06:36:42.272Z,17418.24
2022-07-28T06:37:45.177Z,24883.20
2022-07-28T06:38:45.070Z,25251.84
2022-07-28T06:39:44.921Z,25067.52
2022-07-28T06:39:55.073Z,25436.16
2022-07-28T06:40:55.894Z,24698.88
2022-07-28T06:41:56.360Z,26173.44
2022-07-28T06:42:56.356Z,25620.48
2022-07-28T06:43:57.097Z,25067.52
2022-07-28T06:44:59.283Z,24883.20
2022-07-28T06:45:56.533Z,24883.20
2022-07-28T06:46:58.151Z,24883.20
2022-07-28T06:47:56.955Z,23592.96
2022-07-28T06:48:58.029Z,23961.60
2022-07-28T06:49:58.634Z,23040.00
2022-07-28T06:51:00.413Z,22118.40
2022-07-28T06:52:01.394Z,23500.80
2022-07-28T06:53:00.886Z,24514.56
2022-07-28T06:54:01.635Z,25436.16
2022-07-28T06:55:02.376Z,24145.92
2022-07-28T06:56:02.761Z,23316.48
2022-07-28T06:57:03.158Z,22118.40
2022-07-28T06:58:04.821Z,19077.12
2022-07-28T06:59:05.724Z,15851.52
2022-07-28T07:00:06.570Z,15206.40
2022-07-28T07:01:07.799Z,15114.24
2022-07-28T07:01:16.153Z,15482.88
2022-07-28T07:02:16.780Z,15759.36
2022-07-28T07:03:17.557Z,15667.20
2022-07-28T07:04:19.692Z,15390.72
2022-07-28T07:05:19.293Z,16312.32
2022-07-28T07:06:20.785Z,17233.92
2022-07-28T07:07:21.633Z,17971.20
2022-07-28T07:08:21.407Z,18063.36
2022-07-28T07:09:23.207Z,18432.00
2022-07-28T07:10:23.188Z,14929.92
2022-07-28T07:11:23.735Z,17786.88
2022-07-28T07:12:23.911Z,15575.04
2022-07-28T07:13:24.843Z,16220.16
2022-07-28T07:14:23.838Z,17786.88
2022-07-28T07:15:25.167Z,18616.32
2022-07-28T07:16:25.717Z,19722.24
2022-07-28T07:17:24.863Z,21012.48
2022-07-28T07:18:26.746Z,21473.28
2022-07-28T07:19:26.317Z,21841.92
2022-07-28T07:20:28.178Z,22210.56
2022-07-28T07:21:27.365Z,22671.36
2022-07-28T07:21:37.039Z,23132.16
2022-07-28T07:22:37.266Z,23500.80
2022-07-28T07:23:37.501Z,24514.56
2022-07-28T07:24:37.673Z,24698.88
2022-07-28T07:25:36.918Z,25251.84
2022-07-28T07:26:38.123Z,24883.20
2022-07-28T07:27:38.959Z,25804.80
2022-07-28T07:28:38.927Z,24330.24
2022-07-28T07:29:39.982Z,23777.28
2022-07-28T07:30:40.874Z,24883.20
2022-07-28T07:31:40.494Z,25620.48
2022-07-28T07:32:41.051Z,25620.48
2022-07-28T07:33:42.011Z,25989.12
2022-07-28T07:34:42.842Z,24883.20
2022-07-28T07:35:43.969Z,25067.52
2022-07-28T07:36:44.843Z,22487.04
2022-07-28T07:37:45.096Z,23316.48
2022-07-28T07:38:45.984Z,24698.88
2022-07-28T07:39:45.914Z,25251.84
2022-07-28T07:40:47.900Z,23224.32
2022-07-28T07:41:47.462Z,23777.28
2022-07-28T07:42:48.729Z,24883.20
2022-07-28T07:42:58.359Z,23961.60
2022-07-28T07:44:00.101Z,24145.92
2022-07-28T07:44:59.125Z,24883.20
2022-07-28T07:46:00.492Z,27832.32
2022-07-28T07:47:00.585Z,26910.72
2022-07-28T07:48:01.280Z,25804.80
2022-07-28T07:49:02.591Z,25436.16
2022-07-28T07:50:04.327Z,27832.32
2022-07-28T07:51:02.225Z,26542.08
2022-07-28T07:52:03.927Z,25804.80
2022-07-28T07:53:04.022Z,25251.84
2022-07-28T07:54:04.981Z,25251.84
2022-07-28T07:55:04.070Z,26726.40
2022-07-28T07:56:05.267Z,26542.08
2022-07-28T07:57:05.450Z,24330.24
2022-07-28T07:58:04.458Z,25804.80
2022-07-28T07:59:06.169Z,27279.36
2022-07-28T08:00:06.324Z,28016.64
2022-07-28T08:01:06.439Z,27832.32
2022-07-28T08:02:05.750Z,28569.60
2022-07-28T08:03:11.021Z,28753.92
2022-07-28T08:04:06.888Z,28200.96
2022-07-28T08:05:07.688Z,28200.96
2022-07-28T08:06:08.112Z,28200.96
2022-07-28T08:07:10.551Z,28753.92
2022-07-28T08:08:09.096Z,28385.28
2022-07-28T08:08:17.113Z,28016.64
2022-07-28T08:09:19.100Z,29675.52
2022-07-28T08:10:19.018Z,30412.80
2022-07-28T08:11:18.736Z,30965.76
2022-07-28T08:12:25.277Z,30965.76
2022-07-28T08:13:19.002Z,31150.08
2022-07-28T08:14:20.908Z,30044.16
2022-07-28T08:15:21.213Z,30781.44
2022-07-28T08:16:21.721Z,30965.76
2022-07-28T08:17:25.678Z,32071.68
2022-07-28T08:18:21.719Z,32071.68
2022-07-28T08:19:22.820Z,31518.72
2022-07-28T08:20:22.786Z,32256.00
2022-07-28T08:21:23.629Z,31334.40
2022-07-28T08:22:24.852Z,32440.32
2022-07-28T08:23:26.342Z,33914.88
2022-07-28T08:24:32.911Z,33546.24
2022-07-28T08:25:26.284Z,34283.52
2022-07-28T08:26:27.391Z,33914.88
2022-07-28T08:27:28.080Z,34467.84
2022-07-28T08:28:28.479Z,33546.24
2022-07-28T08:29:28.717Z,33546.24
2022-07-28T08:29:39.343Z,33177.60
2022-07-28T08:30:40.072Z,33914.88
2022-07-28T08:31:52.188Z,35758.08
2022-07-28T08:32:56.737Z,36679.68
2022-07-28T08:33:54.924Z,37048.32
2022-07-28T08:35:15.902Z,38522.88
2022-07-28T08:35:54.385Z,37785.60
2022-07-28T08:36:55.271Z,36126.72
2022-07-28T08:37:56.357Z,36864.00
2022-07-28T08:38:55.684Z,36495.36
2022-07-28T08:39:56.522Z,37048.32
2022-07-28T08:40:59.262Z,39260.16
2022-07-28T08:41:58.643Z,40366.08
2022-07-28T08:42:59.442Z,41472.00
2022-07-28T08:43:59.297Z,40919.04
2022-07-28T08:45:01.385Z,39997.44
2022-07-28T08:46:00.401Z,34836.48
2022-07-28T08:47:01.779Z,39628.80
2022-07-28T08:48:09.868Z,43499.52
2022-07-28T08:48:14.140Z,44236.80
2022-07-28T08:49:15.933Z,44421.12
2022-07-28T08:50:15.357Z,44789.76
2022-07-28T08:51:16.621Z,44789.76
2022-07-28T08:52:17.072Z,44052.48
2022-07-28T08:53:16.838Z,40181.76
2022-07-28T08:54:18.602Z,40550.40
2022-07-28T08:55:20.542Z,41656.32
2022-07-28T08:56:19.548Z,44052.48
2022-07-28T08:57:19.590Z,42577.92
2022-07-28T08:58:18.763Z,42946.56
2022-07-28T08:59:20.258Z,38338.56
2022-07-28T09:00:25.338Z,41472.00
2022-07-28T09:01:21.195Z,42209.28
2022-07-28T09:02:20.394Z,42946.56
2022-07-28T09:03:20.567Z,44605.44
2022-07-28T09:04:21.121Z,40181.76
2022-07-28T09:05:22.290Z,43683.84
2022-07-28T09:06:21.706Z,44605.44
2022-07-28T09:07:22.628Z,48660.48
2022-07-28T09:08:23.617Z,49029.12
2022-07-28T09:08:32.764Z,48660.48
2022-07-28T09:09:33.114Z,48660.48
2022-07-28T09:10:34.705Z,48291.84
2022-07-28T09:11:34.725Z,48660.48
2022-07-28T09:12:33.798Z,38338.56
2022-07-28T09:13:35.568Z,41656.32
2022-07-28T09:14:34.775Z,46264.32
2022-07-28T09:15:36.195Z,45158.40
2022-07-28T09:16:35.838Z,44789.76
2022-07-28T09:17:35.988Z,45342.72
2022-07-28T09:18:37.244Z,46632.96
2022-07-28T09:19:37.273Z,47554.56
2022-07-28T09:20:37.950Z,45895.68
2022-07-28T09:21:37.863Z,43315.20
2022-07-28T09:22:38.910Z,44605.44
2022-07-28T09:23:44.058Z,48291.84
2022-07-28T09:24:38.157Z,47185.92
2022-07-28T09:25:38.192Z,45342.72
2022-07-28T09:26:39.575Z,45895.68
2022-07-28T09:27:39.611Z,45895.68
2022-07-28T09:28:40.201Z,45711.36
2022-07-28T09:29:39.205Z,47001.60
2022-07-28T09:29:47.852Z,47001.60
2022-07-28T09:30:54.289Z,48291.84
2022-07-28T09:31:55.411Z,48291.84
2022-07-28T09:32:49.531Z,50872.32
2022-07-28T09:33:51.082Z,49029.12
2022-07-28T09:34:51.896Z,44052.48
2022-07-28T09:35:50.719Z,46080.00
2022-07-28T09:36:52.332Z,47185.92
2022-07-28T09:37:53.081Z,48291.84
2022-07-28T09:38:54.028Z,47923.20
2022-07-28T09:39:54.211Z,47185.92
2022-07-28T09:40:54.292Z,49397.76
2022-07-28T09:41:55.456Z,49029.12
2022-07-28T09:42:54.908Z,46817.28
2022-07-28T09:43:56.824Z,48291.84
2022-07-28T09:45:20.273Z,49029.12
2022-07-28T09:45:55.641Z,49766.40
2022-07-28T09:46:56.163Z,50503.68
2022-07-28T09:47:56.497Z,50872.32
2022-07-28T09:48:59.821Z,52346.88
2022-07-28T09:51:07.453Z,51240.96
2022-07-28T09:52:04.901Z,47185.92
2022-07-28T09:53:05.207Z,50503.68
2022-07-28T09:54:06.819Z,52346.88
2022-07-28T09:55:07.858Z,51240.96
2022-07-28T09:56:07.698Z,47001.60
2022-07-28T09:57:07.483Z,46632.96
2022-07-28T09:58:41.404Z,43499.52
2022-07-28T09:59:38.541Z,50872.32
2022-07-28T10:00:40.614Z,52346.88
2022-07-28T10:01:40.685Z,52715.52
2022-07-28T10:02:40.647Z,51240.96
2022-07-28T10:03:44.011Z,49397.76
2022-07-28T10:04:41.224Z,48660.48
2022-07-28T10:05:41.538Z,49766.40
2022-07-28T10:06:42.601Z,50503.68
2022-07-28T10:07:42.304Z,50872.32
2022-07-28T10:08:45.119Z,46632.96
2022-07-28T10:09:43.078Z,33177.60
2022-07-28T10:10:43.802Z,44236.80
2022-07-28T10:11:44.814Z,44421.12
2022-07-28T10:12:44.087Z,44421.12
2022-07-28T10:13:45.383Z,46632.96
2022-07-28T10:14:45.657Z,47185.92
2022-07-28T10:15:48.198Z,43868.16
2022-07-28T10:16:46.556Z,45527.04
2022-07-28T10:17:48.165Z,49397.76
2022-07-28T10:18:00.871Z,49397.76
2022-07-28T10:19:09.098Z,47923.20
2022-07-28T10:20:03.000Z,44421.12
2022-07-28T10:21:02.240Z,44789.76
2022-07-28T10:22:03.728Z,52346.88
2022-07-28T10:23:04.181Z,51240.96
2022-07-28T10:24:04.059Z,51240.96
2022-07-28T10:25:04.955Z,51609.60
2022-07-28T10:26:06.606Z,53452.80
2022-07-28T10:27:05.760Z,44236.80
2022-07-28T10:28:06.261Z,38522.88
2022-07-28T10:29:07.361Z,53821.44
2022-07-28T10:30:08.291Z,54927.36
2022-07-28T10:31:07.676Z,60825.60
2022-07-28T10:32:07.785Z,60456.96
2022-07-28T10:33:08.038Z,62668.80
2022-07-28T10:34:10.900Z,60456.96
2022-07-28T10:35:08.859Z,59351.04
2022-07-28T10:36:10.109Z,59351.04
2022-07-28T10:37:09.570Z,60825.60
2022-07-28T10:38:10.582Z,56033.28
2022-07-28T10:39:10.499Z,56401.92
2022-07-28T10:40:11.061Z,53084.16
2022-07-28T10:41:10.894Z,55296.00
2022-07-28T10:42:12.435Z,54558.72
2022-07-28T10:42:30.558Z,46264.32
2022-07-28T10:43:31.367Z,38522.88
2022-07-28T10:44:35.353Z,45895.68
2022-07-28T10:45:55.088Z,35942.40
2022-07-28T10:46:32.782Z,30228.48
2022-07-28T10:47:36.333Z,28200.96
2022-07-28T10:48:34.127Z,30228.48
2022-07-28T10:49:34.849Z,26910.72
2022-07-28T10:50:35.713Z,25067.52
2022-07-28T10:51:48.709Z,24330.24
2022-07-28T10:52:47.315Z,25620.48
2022-07-28T10:53:37.365Z,29306.88
2022-07-28T10:54:38.267Z,31703.04
2022-07-28T10:55:40.781Z,31703.04
2022-07-28T10:56:39.472Z,27648.00
2022-07-28T10:57:41.070Z,23224.32
2022-07-28T10:58:40.274Z,21104.64
2022-07-28T10:59:40.493Z,19906.56
2022-07-28T11:00:55.482Z,19906.56
2022-07-28T11:01:49.761Z,21473.28
2022-07-28T11:02:42.793Z,23132.16
2022-07-28T11:03:43.363Z,24698.88
2022-07-28T11:04:43.751Z,35758.08
2022-07-28T11:05:45.543Z,39444.48
2022-07-28T11:05:54.161Z,42946.56
2022-07-28T11:06:54.942Z,38891.52
2022-07-28T11:07:56.926Z,30597.12
2022-07-28T11:08:57.105Z,29122.56
2022-07-28T11:09:57.995Z,27095.04
2022-07-28T11:11:07.609Z,27095.04
2022-07-28T11:11:59.154Z,33730.56
2022-07-28T11:12:59.314Z,26910.72
2022-07-28T11:14:00.308Z,25620.48
2022-07-28T11:15:18.285Z,21841.92
2022-07-28T11:16:02.316Z,21749.76
2022-07-28T11:17:02.379Z,21381.12
2022-07-28T11:18:03.237Z,21841.92
2022-07-28T11:19:04.564Z,26173.44
2022-07-28T11:21:05.965Z,23316.48
2022-07-28T11:22:06.921Z,22026.24
2022-07-28T11:23:07.319Z,19906.56
2022-07-28T11:24:08.032Z,19169.28
2022-07-28T11:25:19.389Z,18984.96
2022-07-28T11:26:09.002Z,19169.28
2022-07-28T11:27:09.694Z,19906.56
2022-07-28T11:28:11.522Z,19906.56
2022-07-28T11:29:11.854Z,19998.72
2022-07-28T11:30:11.453Z,20275.20
2022-07-28T11:31:12.783Z,20828.16
2022-07-28T11:32:12.562Z,21841.92
2022-07-28T11:33:13.757Z,23777.28
2022-07-28T11:33:27.216Z,24698.88
2022-07-28T11:34:27.219Z,34099.20
2022-07-28T11:35:29.191Z,27832.32
2022-07-28T11:36:30.063Z,33546.24
2022-07-28T11:37:30.056Z,32808.96
2022-07-28T11:38:31.011Z,28200.96
2022-07-28T11:39:31.166Z,23592.96
2022-07-28T11:40:30.183Z,21381.12
2022-07-28T11:41:31.559Z,20090.88
2022-07-28T11:42:31.531Z,19169.28
2022-07-28T11:43:36.216Z,18432.00
2022-07-28T11:44:32.305Z,17786.88
2022-07-28T11:45:38.451Z,17233.92
2022-07-28T11:46:33.479Z,16680.96
2022-07-28T11:47:33.710Z,16220.16
2022-07-28T11:48:35.698Z,15851.52
2022-07-28T11:49:34.990Z,15667.20
2022-07-28T11:50:36.014Z,15575.04
2022-07-28T11:50:44.657Z,15482.88
2022-07-28T11:51:51.311Z,15390.72
2022-07-28T11:52:45.990Z,15390.72
2022-07-28T11:53:47.176Z,15298.56
2022-07-28T11:54:47.801Z,15206.40
2022-07-28T11:55:49.917Z,15206.40
2022-07-28T11:57:16.105Z,15206.40
2022-07-28T11:58:21.628Z,15206.40
2022-07-28T11:59:19.550Z,15482.88
2022-07-28T12:00:24.854Z,15851.52